Lieutenant General Qasem Soleimani International Airport

OIAW · Khuzestan, 伊朗

罗盘
风向 的 风向 110° Lieutenant General Qasem Soleimani International Airport 12/30
风: 4 kt, 2 beaufort

4 kt

1 kt
改变
0 ft 5.000 10.000 15.000 20.000
Cloud Cloud
FEW 3.500
Cloud Cloud Cloud Cloud
SCT 19.000
METAR OIAW 241200Z 11004KT 9999 FEW035 SCT190 36/08 Q1002

METAR Lieutenant General Qasem Soleimani International Airport - OIAW/AWZ

Lieutenant General Qasem Soleimani International Airport是,伊朗中的中型机场。 该机场位于纬度31,33740和经度48,76200。 该机场有一条跑道: 12/30. 本场的ICAO机场代码为OIAW。 该机场的IATA代码为AWZ。 机场在Tehran FIR中。

该航空气象观测是针对Lieutenant General Qasem Soleimani International Airport在2024年4月24日 15:30, 当地时间进行的。

机场观察

风向为110°,速度为4 kt。

可见度为10 km 或者更多。

有几云在3.500 ft的高度 和 疏云,零星散落的云朵在19.000 ft的高度。 没有观察到天花板。

温度和风寒是36 °C。 露点为8 °C,相对湿度为18%。 海平面上的气压为1002 hPa (QNH)。

白天

今天,太阳从05:36升起,在18:49降落。 这适用于Lieutenant General Qasem Soleimani International Airport,世界夏令时可能有所不同。 当地时间与世界标准时间之间的时差为+3 小时 30 分钟。 夏令时目前正在进行中。

公司介绍

我们没有关于这个机场的公司信息。

体会

到Vliegles.nl去找飞行课程,跳伞和其他飞行体验。 浏览页面,了解Lieutenant General Qasem Soleimani International Airport附近所有可用的活动。 你也可以使用搜索功能来寻找你所在地附近的特定飞行课程、跳伞或其他飞行体验。

跑道

Id 标题 侧风 逆风 侧风 %
12/30 124°-304° 4 kt 24 %

逆风成分最大的方向会被突出显示,并用于横风计算。 这并不一定意味着这个方向在使用。

乌云

3.500 ft FEW 几云
19.000 ft SCT 疏云,零星散落的云朵

温度 & 天气

温度 36 °C
露点 8 °C
相对湿度 18%
Kp-index 0 (0-9)

白天

日出
05:36
中午
12:13
日落
18:49 (3:07)

小工具

你想在你的网站上有一个关于Lieutenant General Qasem Soleimani International Airport的当前航空天气(METAR)的小部件吗?

显示HTML代码
报告变更